sensor_id;sensor_type;location;lat;lon;timestamp;pressure;altitude;pressure_sealevel;temperature;humidity
40788;BME280;26497;52.494;7.546;2023-02-04T00:00:12;102320.00;;;9.59;73.84
40788;BME280;26497;52.494;7.546;2023-02-04T00:02:41;102311.34;;;9.63;73.86
40788;BME280;26497;52.494;7.546;2023-02-04T00:05:10;102319.53;;;9.72;73.71
40788;BME280;26497;52.494;7.546;2023-02-04T00:07:37;102326.84;;;9.83;73.52
40788;BME280;26497;52.494;7.546;2023-02-04T00:10:06;102334.69;;;9.81;73.28
40788;BME280;26497;52.494;7.546;2023-02-04T00:12:33;102340.22;;;9.89;73.13
40788;BME280;26497;52.494;7.546;2023-02-04T00:15:01;102337.72;;;9.95;72.57
40788;BME280;26497;52.494;7.546;2023-02-04T00:17:28;102345.81;;;10.01;72.17
40788;BME280;26497;52.494;7.546;2023-02-04T00:19:55;102354.75;;;10.07;72.13
40788;BME280;26497;52.494;7.546;2023-02-04T00:22:23;102350.81;;;10.23;71.37
40788;BME280;26497;52.494;7.546;2023-02-04T00:24:51;102349.22;;;10.29;70.84
40788;BME280;26497;52.494;7.546;2023-02-04T00:27:18;102358.94;;;10.30;70.37
40788;BME280;26497;52.494;7.546;2023-02-04T00:29:45;102364.34;;;10.35;70.11
40788;BME280;26497;52.494;7.546;2023-02-04T00:32:12;102366.16;;;10.38;69.79
40788;BME280;26497;52.494;7.546;2023-02-04T00:34:39;102376.72;;;10.38;70.19
40788;BME280;26497;52.494;7.546;2023-02-04T00:37:06;102382.97;;;10.40;69.98
40788;BME280;26497;52.494;7.546;2023-02-04T00:39:35;102381.03;;;10.34;70.65
40788;BME280;26497;52.494;7.546;2023-02-04T00:42:03;102375.25;;;10.17;71.36
40788;BME280;26497;52.494;7.546;2023-02-04T00:44:30;102381.09;;;10.07;72.10
40788;BME280;26497;52.494;7.546;2023-02-04T00:46:57;102389.00;;;10.05;72.67
40788;BME280;26497;52.494;7.546;2023-02-04T00:49:24;102393.16;;;9.98;72.85
40788;BME280;26497;52.494;7.546;2023-02-04T00:51:51;102395.59;;;9.91;73.28
40788;BME280;26497;52.494;7.546;2023-02-04T00:54:18;102401.72;;;10.20;72.18
40788;BME280;26497;52.494;7.546;2023-02-04T00:56:46;102396.03;;;10.37;71.73
40788;BME280;26497;52.494;7.546;2023-02-04T00:59:13;102388.56;;;10.51;71.19
40788;BME280;26497;52.494;7.546;2023-02-04T01:01:40;102390.50;;;10.58;70.71
40788;BME280;26497;52.494;7.546;2023-02-04T01:04:08;102398.09;;;10.47;70.70
40788;BME280;26497;52.494;7.546;2023-02-04T01:06:35;102409.81;;;10.57;70.68
40788;BME280;26497;52.494;7.546;2023-02-04T01:09:03;102413.84;;;10.44;70.55
40788;BME280;26497;52.494;7.546;2023-02-04T01:11:30;102425.34;;;10.46;71.20
40788;BME280;26497;52.494;7.546;2023-02-04T01:13:59;102417.97;;;10.36;71.41
40788;BME280;26497;52.494;7.546;2023-02-04T01:16:26;102426.94;;;10.41;71.56
40788;BME280;26497;52.494;7.546;2023-02-04T01:18:53;102425.41;;;10.49;70.96
40788;BME280;26497;52.494;7.546;2023-02-04T01:21:21;102434.13;;;10.79;70.11
40788;BME280;26497;52.494;7.546;2023-02-04T01:23:48;102443.91;;;10.83;69.46
40788;BME280;26497;52.494;7.546;2023-02-04T01:26:15;102451.66;;;10.75;69.78
40788;BME280;26497;52.494;7.546;2023-02-04T01:28:42;102455.34;;;10.82;69.78
40788;BME280;26497;52.494;7.546;2023-02-04T01:31:11;102457.13;;;10.83;69.49
40788;BME280;26497;52.494;7.546;2023-02-04T01:33:38;102458.63;;;10.73;69.50
40788;BME280;26497;52.494;7.546;2023-02-04T01:36:06;102457.31;;;10.57;70.09
40788;BME280;26497;52.494;7.546;2023-02-04T01:38:33;102463.19;;;10.46;70.58
40788;BME280;26497;52.494;7.546;2023-02-04T01:41:00;102460.94;;;10.31;70.92
40788;BME280;26497;52.494;7.546;2023-02-04T01:43:27;102458.56;;;10.10;72.02
40788;BME280;26497;52.494;7.546;2023-02-04T01:45:54;102462.88;;;10.08;72.46
40788;BME280;26497;52.494;7.546;2023-02-04T01:48:23;102466.88;;;9.95;73.35
40788;BME280;26497;52.494;7.546;2023-02-04T01:50:54;102466.84;;;9.94;73.30
40788;BME280;26497;52.494;7.546;2023-02-04T01:53:24;102477.84;;;9.80;74.16
40788;BME280;26497;52.494;7.546;2023-02-04T01:55:52;102474.34;;;9.81;74.39
40788;BME280;26497;52.494;7.546;2023-02-04T01:58:19;102485.00;;;9.84;74.33
40788;BME280;26497;52.494;7.546;2023-02-04T02:00:46;102485.91;;;9.85;74.35
40788;BME280;26497;52.494;7.546;2023-02-04T02:03:13;102490.53;;;9.92;74.27
40788;BME280;26497;52.494;7.546;2023-02-04T02:05:45;102491.22;;;10.15;73.12
40788;BME280;26497;52.494;7.546;2023-02-04T02:08:14;102483.53;;;10.23;72.28
40788;BME280;26497;52.494;7.546;2023-02-04T02:10:44;102492.56;;;10.30;71.95
40788;BME280;26497;52.494;7.546;2023-02-04T02:13:15;102492.31;;;10.22;72.34
40788;BME280;26497;52.494;7.546;2023-02-04T02:15:43;102496.31;;;10.38;71.67
40788;BME280;26497;52.494;7.546;2023-02-04T02:18:11;102499.63;;;10.31;72.21
40788;BME280;26497;52.494;7.546;2023-02-04T02:20:38;102502.91;;;10.24;72.37
40788;BME280;26497;52.494;7.546;2023-02-04T02:23:18;102501.59;;;10.09;73.08
40788;BME280;26497;52.494;7.546;2023-02-04T02:25:48;102508.56;;;10.07;73.22
40788;BME280;26497;52.494;7.546;2023-02-04T02:28:20;102501.69;;;10.12;72.81
40788;BME280;26497;52.494;7.546;2023-02-04T02:30:48;102512.25;;;10.14;73.00
40788;BME280;26497;52.494;7.546;2023-02-04T02:33:18;102509.69;;;10.15;72.57
40788;BME280;26497;52.494;7.546;2023-02-04T02:35:46;102510.56;;;10.16;72.73
40788;BME280;26497;52.494;7.546;2023-02-04T02:38:14;102508.69;;;10.12;73.20
40788;BME280;26497;52.494;7.546;2023-02-04T02:40:42;102517.50;;;10.12;72.85
40788;BME280;26497;52.494;7.546;2023-02-04T02:43:14;102526.19;;;10.10;73.54
40788;BME280;26497;52.494;7.546;2023-02-04T02:45:41;102536.00;;;10.14;72.90
40788;BME280;26497;52.494;7.546;2023-02-04T02:48:09;102524.38;;;10.07;73.17
40788;BME280;26497;52.494;7.546;2023-02-04T02:50:36;102530.50;;;10.06;73.32
40788;BME280;26497;52.494;7.546;2023-02-04T02:53:09;102528.06;;;10.12;73.78
40788;BME280;26497;52.494;7.546;2023-02-04T02:55:36;102530.91;;;10.20;73.45
40788;BME280;26497;52.494;7.546;2023-02-04T02:58:04;102539.28;;;10.34;73.05
40788;BME280;26497;52.494;7.546;2023-02-04T03:00:36;102533.00;;;10.30;72.94
40788;BME280;26497;52.494;7.546;2023-02-04T03:03:08;102543.59;;;10.32;72.85
40788;BME280;26497;52.494;7.546;2023-02-04T03:05:41;102546.16;;;10.30;73.09
40788;BME280;26497;52.494;7.546;2023-02-04T03:08:09;102538.56;;;10.40;72.97
40788;BME280;26497;52.494;7.546;2023-02-04T03:10:37;102549.31;;;10.46;72.36
40788;BME280;26497;52.494;7.546;2023-02-04T03:13:04;102548.47;;;10.47;72.34
40788;BME280;26497;52.494;7.546;2023-02-04T03:15:32;102537.25;;;10.54;72.30
40788;BME280;26497;52.494;7.546;2023-02-04T03:18:01;102546.19;;;10.59;72.14
40788;BME280;26497;52.494;7.546;2023-02-04T03:20:30;102555.03;;;10.60;72.34
40788;BME280;26497;52.494;7.546;2023-02-04T03:22:58;102559.56;;;10.66;72.31
40788;BME280;26497;52.494;7.546;2023-02-04T03:25:26;102566.06;;;10.77;71.84
40788;BME280;26497;52.494;7.546;2023-02-04T03:27:54;102565.16;;;10.76;71.70
40788;BME280;26497;52.494;7.546;2023-02-04T03:30:23;102566.78;;;11.02;71.15
40788;BME280;26497;52.494;7.546;2023-02-04T03:32:51;102564.59;;;11.19;70.11
40788;BME280;26497;52.494;7.546;2023-02-04T03:35:20;102563.38;;;11.40;68.42
40788;BME280;26497;52.494;7.546;2023-02-04T03:37:47;102580.13;;;11.40;68.30
40788;BME280;26497;52.494;7.546;2023-02-04T03:40:15;102590.94;;;11.49;67.74
40788;BME280;26497;52.494;7.546;2023-02-04T03:42:42;102576.88;;;11.50;67.47
40788;BME280;26497;52.494;7.546;2023-02-04T03:45:09;102582.84;;;11.43;67.51
40788;BME280;26497;52.494;7.546;2023-02-04T03:47:36;102577.38;;;11.35;67.67
40788;BME280;26497;52.494;7.546;2023-02-04T03:50:04;102578.88;;;11.26;67.66
40788;BME280;26497;52.494;7.546;2023-02-04T03:52:33;102577.94;;;11.24;67.86
40788;BME280;26497;52.494;7.546;2023-02-04T03:54:59;102579.66;;;11.21;67.74
40788;BME280;26497;52.494;7.546;2023-02-04T03:57:26;102580.44;;;11.19;67.69
40788;BME280;26497;52.494;7.546;2023-02-04T03:59:53;102575.31;;;11.25;67.36
40788;BME280;26497;52.494;7.546;2023-02-04T04:02:20;102580.84;;;11.34;66.98
40788;BME280;26497;52.494;7.546;2023-02-04T04:04:47;102586.25;;;11.39;66.54
40788;BME280;26497;52.494;7.546;2023-02-04T04:07:14;102592.13;;;11.29;66.63
40788;BME280;26497;52.494;7.546;2023-02-04T04:09:43;102592.94;;;11.25;66.71
40788;BME280;26497;52.494;7.546;2023-02-04T04:12:09;102599.94;;;11.24;66.59
40788;BME280;26497;52.494;7.546;2023-02-04T04:14:36;102601.31;;;11.10;66.81
40788;BME280;26497;52.494;7.546;2023-02-04T04:17:03;102620.47;;;11.02;67.07
40788;BME280;26497;52.494;7.546;2023-02-04T04:19:31;102621.09;;;10.94;67.06
40788;BME280;26497;52.494;7.546;2023-02-04T04:21:58;102625.09;;;10.81;67.38
40788;BME280;26497;52.494;7.546;2023-02-04T04:24:25;102624.06;;;10.75;67.26
40788;BME280;26497;52.494;7.546;2023-02-04T04:26:53;102627.44;;;10.70;67.07
40788;BME280;26497;52.494;7.546;2023-02-04T04:29:20;102631.75;;;10.68;67.10
40788;BME280;26497;52.494;7.546;2023-02-04T04:31:47;102634.97;;;10.57;66.95
40788;BME280;26497;52.494;7.546;2023-02-04T04:34:14;102631.16;;;10.47;67.05
40788;BME280;26497;52.494;7.546;2023-02-04T04:36:41;102646.03;;;10.45;66.94
40788;BME280;26497;52.494;7.546;2023-02-04T04:39:08;102649.47;;;10.43;66.87
40788;BME280;26497;52.494;7.546;2023-02-04T04:41:35;102648.34;;;10.64;66.24
40788;BME280;26497;52.494;7.546;2023-02-04T04:44:04;102656.06;;;10.57;66.33
40788;BME280;26497;52.494;7.546;2023-02-04T04:46:31;102657.66;;;10.25;66.91
40788;BME280;26497;52.494;7.546;2023-02-04T04:48:58;102661.69;;;10.15;67.05
40788;BME280;26497;52.494;7.546;2023-02-04T04:51:25;102672.56;;;9.98;67.66
40788;BME280;26497;52.494;7.546;2023-02-04T04:53:52;102671.94;;;10.06;67.36
40788;BME280;26497;52.494;7.546;2023-02-04T04:56:19;102674.47;;;10.02;67.78
40788;BME280;26497;52.494;7.546;2023-02-04T04:58:46;102674.47;;;10.02;67.61
40788;BME280;26497;52.494;7.546;2023-02-04T05:01:14;102679.00;;;10.07;67.96
40788;BME280;26497;52.494;7.546;2023-02-04T05:03:41;102676.88;;;10.22;67.52
40788;BME280;26497;52.494;7.546;2023-02-04T05:06:08;102688.56;;;10.29;67.46
40788;BME280;26497;52.494;7.546;2023-02-04T05:08:37;102687.09;;;10.39;68.01
40788;BME280;26497;52.494;7.546;2023-02-04T05:11:04;102693.53;;;10.45;68.25
40788;BME280;26497;52.494;7.546;2023-02-04T05:13:31;102691.56;;;10.40;68.47
40788;BME280;26497;52.494;7.546;2023-02-04T05:15:58;102705.13;;;10.51;68.91
40788;BME280;26497;52.494;7.546;2023-02-04T05:18:27;102699.03;;;10.53;68.57
40788;BME280;26497;52.494;7.546;2023-02-04T05:20:53;102696.19;;;10.47;68.83
40788;BME280;26497;52.494;7.546;2023-02-04T05:23:20;102692.91;;;10.54;68.30
40788;BME280;26497;52.494;7.546;2023-02-04T05:25:47;102708.84;;;10.57;68.25
40788;BME280;26497;52.494;7.546;2023-02-04T05:28:14;102708.41;;;10.43;68.07
40788;BME280;26497;52.494;7.546;2023-02-04T05:30:41;102720.66;;;10.41;68.23
40788;BME280;26497;52.494;7.546;2023-02-04T05:33:08;102722.38;;;10.41;68.27
40788;BME280;26497;52.494;7.546;2023-02-04T05:35:37;102728.41;;;10.38;67.90
40788;BME280;26497;52.494;7.546;2023-02-04T05:38:04;102737.00;;;10.32;67.68
40788;BME280;26497;52.494;7.546;2023-02-04T05:40:30;102732.63;;;10.33;67.73
40788;BME280;26497;52.494;7.546;2023-02-04T05:42:58;102737.00;;;10.32;67.41
40788;BME280;26497;52.494;7.546;2023-02-04T05:45:24;102739.59;;;10.31;67.17
40788;BME280;26497;52.494;7.546;2023-02-04T05:47:52;102731.41;;;10.23;67.43
40788;BME280;26497;52.494;7.546;2023-02-04T05:50:19;102737.22;;;10.39;66.12
40788;BME280;26497;52.494;7.546;2023-02-04T05:52:47;102737.19;;;10.37;65.93
40788;BME280;26497;52.494;7.546;2023-02-04T05:55:14;102742.19;;;10.29;65.99
40788;BME280;26497;52.494;7.546;2023-02-04T05:57:41;102748.03;;;10.21;65.77
40788;BME280;26497;52.494;7.546;2023-02-04T06:00:10;102745.50;;;10.24;65.57
40788;BME280;26497;52.494;7.546;2023-02-04T06:02:38;102753.25;;;10.19;65.28
40788;BME280;26497;52.494;7.546;2023-02-04T06:05:05;102751.09;;;10.33;63.78
40788;BME280;26497;52.494;7.546;2023-02-04T06:07:32;102754.47;;;10.29;63.87
40788;BME280;26497;52.494;7.546;2023-02-04T06:10:01;102757.13;;;10.29;63.03
40788;BME280;26497;52.494;7.546;2023-02-04T06:12:28;102760.59;;;10.28;62.47
40788;BME280;26497;52.494;7.546;2023-02-04T06:14:55;102762.69;;;10.12;63.01
40788;BME280;26497;52.494;7.546;2023-02-04T06:17:22;102767.91;;;10.11;62.83
40788;BME280;26497;52.494;7.546;2023-02-04T06:19:49;102774.75;;;10.06;62.96
40788;BME280;26497;52.494;7.546;2023-02-04T06:22:16;102773.50;;;10.20;62.07
40788;BME280;26497;52.494;7.546;2023-02-04T06:24:43;102784.91;;;10.19;61.42
40788;BME280;26497;52.494;7.546;2023-02-04T06:27:12;102794.38;;;10.14;61.61
40788;BME280;26497;52.494;7.546;2023-02-04T06:29:39;102791.81;;;10.15;61.15
40788;BME280;26497;52.494;7.546;2023-02-04T06:32:06;102797.31;;;9.97;62.00
40788;BME280;26497;52.494;7.546;2023-02-04T06:34:32;102793.72;;;9.95;61.93
40788;BME280;26497;52.494;7.546;2023-02-04T06:36:59;102802.38;;;9.91;62.15
40788;BME280;26497;52.494;7.546;2023-02-04T06:39:26;102809.38;;;9.91;62.41
40788;BME280;26497;52.494;7.546;2023-02-04T06:41:53;102804.69;;;9.82;62.32
40788;BME280;26497;52.494;7.546;2023-02-04T06:44:22;102804.56;;;9.79;62.79
40788;BME280;26497;52.494;7.546;2023-02-04T06:46:49;102805.31;;;9.76;62.55
40788;BME280;26497;52.494;7.546;2023-02-04T06:49:16;102819.41;;;9.77;62.67
40788;BME280;26497;52.494;7.546;2023-02-04T06:51:43;102822.53;;;9.66;62.63
40788;BME280;26497;52.494;7.546;2023-02-04T06:54:10;102816.38;;;9.66;62.69
40788;BME280;26497;52.494;7.546;2023-02-04T06:56:36;102826.50;;;9.55;62.73
40788;BME280;26497;52.494;7.546;2023-02-04T06:59:03;102827.38;;;9.55;63.32
40788;BME280;26497;52.494;7.546;2023-02-04T07:01:32;102829.03;;;9.52;63.10
40788;BME280;26497;52.494;7.546;2023-02-04T07:03:59;102826.44;;;9.53;63.28
40788;BME280;26497;52.494;7.546;2023-02-04T07:06:26;102824.88;;;9.58;63.27
40788;BME280;26497;52.494;7.546;2023-02-04T07:08:53;102846.91;;;9.61;63.50
40788;BME280;26497;52.494;7.546;2023-02-04T07:11:20;102842.66;;;9.64;63.15
40788;BME280;26497;52.494;7.546;2023-02-04T07:13:47;102844.38;;;9.64;63.11
40788;BME280;26497;52.494;7.546;2023-02-04T07:16:14;102848.81;;;9.65;63.29
40788;BME280;26497;52.494;7.546;2023-02-04T07:18:42;102836.84;;;9.73;63.43
40788;BME280;26497;52.494;7.546;2023-02-04T07:21:09;102837.88;;;9.77;62.99
40788;BME280;26497;52.494;7.546;2023-02-04T07:23:36;102837.88;;;9.77;63.22
40788;BME280;26497;52.494;7.546;2023-02-04T07:26:03;102845.88;;;9.80;63.26
40788;BME280;26497;52.494;7.546;2023-02-04T07:28:30;102849.47;;;9.82;62.99
40788;BME280;26497;52.494;7.546;2023-02-04T07:30:57;102854.91;;;9.86;63.10
40788;BME280;26497;52.494;7.546;2023-02-04T07:33:24;102856.72;;;9.87;63.36
40788;BME280;26497;52.494;7.546;2023-02-04T07:35:52;102867.44;;;9.92;63.10
40788;BME280;26497;52.494;7.546;2023-02-04T07:38:19;102868.34;;;9.94;63.23
40788;BME280;26497;52.494;7.546;2023-02-04T07:40:46;102876.69;;;10.05;62.71
40788;BME280;26497;52.494;7.546;2023-02-04T07:43:13;102881.84;;;10.02;63.01
40788;BME280;26497;52.494;7.546;2023-02-04T07:45:40;102888.81;;;10.00;62.91
40788;BME280;26497;52.494;7.546;2023-02-04T07:48:07;102892.38;;;10.02;62.73
40788;BME280;26497;52.494;7.546;2023-02-04T07:50:35;102888.97;;;10.04;62.88
40788;BME280;26497;52.494;7.546;2023-02-04T07:53:03;102895.53;;;10.16;62.97
40788;BME280;26497;52.494;7.546;2023-02-04T07:55:30;102895.53;;;10.16;62.60
40788;BME280;26497;52.494;7.546;2023-02-04T07:57:57;102899.13;;;10.18;62.80
40788;BME280;26497;52.494;7.546;2023-02-04T08:00:24;102894.06;;;10.24;62.83
40788;BME280;26497;52.494;7.546;2023-02-04T08:02:51;102900.41;;;10.29;62.75
40788;BME280;26497;52.494;7.546;2023-02-04T08:05:18;102903.28;;;10.36;62.52
40788;BME280;26497;52.494;7.546;2023-02-04T08:07:45;102911.31;;;10.39;62.22
40788;BME280;26497;52.494;7.546;2023-02-04T08:10:14;102915.97;;;10.44;61.91
40788;BME280;26497;52.494;7.546;2023-02-04T08:12:41;102930.94;;;10.45;61.70
40788;BME280;26497;52.494;7.546;2023-02-04T08:15:08;102918.00;;;10.53;61.40
40788;BME280;26497;52.494;7.546;2023-02-04T08:17:35;102932.13;;;10.54;61.36
40788;BME280;26497;52.494;7.546;2023-02-04T08:20:03;102929.78;;;10.63;60.99
40788;BME280;26497;52.494;7.546;2023-02-04T08:22:30;102937.16;;;10.72;60.66
40788;BME280;26497;52.494;7.546;2023-02-04T08:24:58;102945.44;;;10.83;60.80
40788;BME280;26497;52.494;7.546;2023-02-04T08:27:27;102946.56;;;10.89;60.66
40788;BME280;26497;52.494;7.546;2023-02-04T08:29:54;102950.34;;;10.98;60.66
40788;BME280;26497;52.494;7.546;2023-02-04T08:32:20;102946.03;;;11.00;60.40
40788;BME280;26497;52.494;7.546;2023-02-04T08:34:47;102955.03;;;11.06;59.97
40788;BME280;26497;52.494;7.546;2023-02-04T08:37:14;102957.97;;;11.14;59.47
40788;BME280;26497;52.494;7.546;2023-02-04T08:39:41;102958.28;;;11.24;59.32
40788;BME280;26497;52.494;7.546;2023-02-04T08:42:11;102943.31;;;11.24;59.05
40788;BME280;26497;52.494;7.546;2023-02-04T08:44:39;102945.72;;;11.16;58.77
40788;BME280;26497;52.494;7.546;2023-02-04T08:47:06;102953.53;;;11.13;58.35
40788;BME280;26497;52.494;7.546;2023-02-04T08:49:33;102953.09;;;11.01;58.30
40788;BME280;26497;52.494;7.546;2023-02-04T08:52:00;102959.56;;;11.09;58.66
40788;BME280;26497;52.494;7.546;2023-02-04T08:54:28;102959.13;;;11.23;57.78
40788;BME280;26497;52.494;7.546;2023-02-04T08:56:55;102960.31;;;11.32;57.74
40788;BME280;26497;52.494;7.546;2023-02-04T08:59:23;102967.59;;;11.40;57.61
40788;BME280;26497;52.494;7.546;2023-02-04T09:01:52;102973.22;;;11.50;57.59
40788;BME280;26497;52.494;7.546;2023-02-04T09:04:19;102966.34;;;11.56;57.28
40788;BME280;26497;52.494;7.546;2023-02-04T09:06:47;102980.56;;;11.59;56.92
40788;BME280;26497;52.494;7.546;2023-02-04T09:09:14;102969.38;;;11.68;56.98
40788;BME280;26497;52.494;7.546;2023-02-04T09:11:42;102967.00;;;11.76;56.84
40788;BME280;26497;52.494;7.546;2023-02-04T09:14:09;102973.69;;;11.93;56.12
40788;BME280;26497;52.494;7.546;2023-02-04T09:16:36;102965.41;;;12.10;55.97
40788;BME280;26497;52.494;7.546;2023-02-04T09:19:05;102972.25;;;12.32;55.06
40788;BME280;26497;52.494;7.546;2023-02-04T09:21:33;102971.59;;;12.41;54.25
40788;BME280;26497;52.494;7.546;2023-02-04T09:27:41;102980.34;;;12.69;52.13
40788;BME280;26497;52.494;7.546;2023-02-04T09:30:10;102979.72;;;12.79;52.36
40788;BME280;26497;52.494;7.546;2023-02-04T09:32:37;102981.84;;;12.93;51.87
40788;BME280;26497;52.494;7.546;2023-02-04T09:35:06;102984.59;;;12.96;51.26
40788;BME280;26497;52.494;7.546;2023-02-04T09:37:33;102986.53;;;13.03;51.04
40788;BME280;26497;52.494;7.546;2023-02-04T09:40:00;102989.75;;;12.91;51.12
40788;BME280;26497;52.494;7.546;2023-02-04T09:42:27;102991.88;;;12.73;51.75
40788;BME280;26497;52.494;7.546;2023-02-04T09:44:55;102995.13;;;12.94;50.20
40788;BME280;26497;52.494;7.546;2023-02-04T09:47:23;103003.50;;;12.78;50.51
40788;BME280;26497;52.494;7.546;2023-02-04T09:49:51;103008.13;;;12.85;50.50
40788;BME280;26497;52.494;7.546;2023-02-04T09:52:20;103011.25;;;13.02;49.63
40788;BME280;26497;52.494;7.546;2023-02-04T09:54:49;103008.22;;;13.57;49.72
40788;BME280;26497;52.494;7.546;2023-02-04T09:57:18;103015.31;;;14.35;48.23
40788;BME280;26497;52.494;7.546;2023-02-04T09:59:46;103020.47;;;15.16;45.86
40788;BME280;26497;52.494;7.546;2023-02-04T10:02:21;103009.56;;;15.54;43.72
40788;BME280;26497;52.494;7.546;2023-02-04T10:04:49;103007.78;;;15.53;43.84
40788;BME280;26497;52.494;7.546;2023-02-04T10:07:21;103014.75;;;15.45;43.33
40788;BME280;26497;52.494;7.546;2023-02-04T10:09:50;103024.09;;;15.21;43.86
40788;BME280;26497;52.494;7.546;2023-02-04T10:12:17;103019.03;;;14.87;43.46
40788;BME280;26497;52.494;7.546;2023-02-04T10:14:45;103031.78;;;14.63;44.48
40788;BME280;26497;52.494;7.546;2023-02-04T10:17:18;103038.31;;;14.77;44.85
40788;BME280;26497;52.494;7.546;2023-02-04T10:19:46;103028.97;;;14.96;44.42
40788;BME280;26497;52.494;7.546;2023-02-04T10:22:20;103037.91;;;15.01;44.24
40788;BME280;26497;52.494;7.546;2023-02-04T10:24:48;103029.16;;;15.06;43.44
40788;BME280;26497;52.494;7.546;2023-02-04T10:27:15;103030.91;;;14.62;44.06
40788;BME280;26497;52.494;7.546;2023-02-04T10:29:42;103036.81;;;14.90;44.93
40788;BME280;26497;52.494;7.546;2023-02-04T10:32:32;103040.09;;;15.24;44.36
40788;BME280;26497;52.494;7.546;2023-02-04T10:35:00;103045.50;;;15.30;44.07
40788;BME280;26497;52.494;7.546;2023-02-04T10:37:29;103046.25;;;15.20;43.29
40788;BME280;26497;52.494;7.546;2023-02-04T10:39:57;103042.19;;;14.93;43.26
40788;BME280;26497;52.494;7.546;2023-02-04T10:42:25;103040.41;;;14.92;43.54
40788;BME280;26497;52.494;7.546;2023-02-04T10:44:53;103034.34;;;15.01;44.06
40788;BME280;26497;52.494;7.546;2023-02-04T10:47:22;103044.28;;;15.10;42.86
40788;BME280;26497;52.494;7.546;2023-02-04T10:49:55;103041.47;;;15.02;43.54
40788;BME280;26497;52.494;7.546;2023-02-04T10:52:32;103043.41;;;15.11;43.87
40788;BME280;26497;52.494;7.546;2023-02-04T10:55:02;103045.19;;;15.12;43.30
40788;BME280;26497;52.494;7.546;2023-02-04T10:57:29;103048.72;;;15.11;43.85
40788;BME280;26497;52.494;7.546;2023-02-04T10:59:59;103040.47;;;15.46;43.74
40788;BME280;26497;52.494;7.546;2023-02-04T11:02:42;103035.94;;;15.92;42.33
40788;BME280;26497;52.494;7.546;2023-02-04T11:05:16;103034.72;;;16.32;41.39
40788;BME280;26497;52.494;7.546;2023-02-04T11:07:46;103038.59;;;16.60;41.13
40788;BME280;26497;52.494;7.546;2023-02-04T11:10:16;103033.25;;;16.56;41.09
40788;BME280;26497;52.494;7.546;2023-02-04T11:12:45;103042.53;;;16.19;41.37
40788;BME280;26497;52.494;7.546;2023-02-04T11:15:43;103035.06;;;15.94;41.10
40788;BME280;26497;52.494;7.546;2023-02-04T11:18:24;103036.47;;;15.73;41.18
40788;BME280;26497;52.494;7.546;2023-02-04T11:20:56;103041.06;;;15.82;41.17
40788;BME280;26497;52.494;7.546;2023-02-04T11:23:35;103046.56;;;15.92;41.07
40788;BME280;26497;52.494;7.546;2023-02-04T11:26:11;103047.47;;;15.95;41.11
40788;BME280;26497;52.494;7.546;2023-02-04T11:28:49;103049.00;;;15.80;41.68
40788;BME280;26497;52.494;7.546;2023-02-04T11:31:38;103048.94;;;15.77;41.71
40788;BME280;26497;52.494;7.546;2023-02-04T11:34:24;103043.03;;;15.94;41.94
40788;BME280;26497;52.494;7.546;2023-02-04T11:40:00;103027.84;;;16.51;40.59
40788;BME280;26497;52.494;7.546;2023-02-04T11:42:37;103030.56;;;16.57;39.66
40788;BME280;26497;52.494;7.546;2023-02-04T11:45:13;103038.53;;;16.53;39.42
40788;BME280;26497;52.494;7.546;2023-02-04T11:47:42;103033.88;;;16.38;39.77
40788;BME280;26497;52.494;7.546;2023-02-04T11:50:15;103034.00;;;16.45;39.96
40788;BME280;26497;52.494;7.546;2023-02-04T11:52:43;103036.25;;;16.14;40.18
40788;BME280;26497;52.494;7.546;2023-02-04T11:55:12;103040.91;;;16.31;40.27
40788;BME280;26497;52.494;7.546;2023-02-04T11:57:40;103035.75;;;16.45;39.96
40788;BME280;26497;52.494;7.546;2023-02-04T12:00:13;103038.66;;;16.63;40.17
40788;BME280;26497;52.494;7.546;2023-02-04T12:02:43;103034.31;;;16.73;39.82
40788;BME280;26497;52.494;7.546;2023-02-04T12:05:14;103041.53;;;16.82;39.10
40788;BME280;26497;52.494;7.546;2023-02-04T12:07:42;103045.00;;;16.76;38.74
40788;BME280;26497;52.494;7.546;2023-02-04T12:10:14;103043.91;;;16.56;39.07
40788;BME280;26497;52.494;7.546;2023-02-04T12:12:50;103057.00;;;16.40;39.48
40788;BME280;26497;52.494;7.546;2023-02-04T12:15:22;103056.13;;;16.43;39.33
40788;BME280;26497;52.494;7.546;2023-02-04T12:18:01;103062.38;;;16.43;38.84
40788;BME280;26497;52.494;7.546;2023-02-04T12:20:28;103056.19;;;16.46;39.35
40788;BME280;26497;52.494;7.546;2023-02-04T12:22:55;103055.47;;;16.61;39.02
40788;BME280;26497;52.494;7.546;2023-02-04T12:25:25;103057.56;;;16.85;38.61
40788;BME280;26497;52.494;7.546;2023-02-04T12:27:52;103052.44;;;17.02;38.38
40788;BME280;26497;52.494;7.546;2023-02-04T12:30:21;103055.00;;;16.94;38.83
40788;BME280;26497;52.494;7.546;2023-02-04T12:32:48;103054.34;;;17.14;38.13
40788;BME280;26497;52.494;7.546;2023-02-04T12:35:15;103048.19;;;17.21;37.76
40788;BME280;26497;52.494;7.546;2023-02-04T12:37:42;103052.44;;;17.01;38.10
40788;BME280;26497;52.494;7.546;2023-02-04T12:40:14;103045.63;;;17.32;37.70
40788;BME280;26497;52.494;7.546;2023-02-04T12:42:43;103055.72;;;17.67;37.26
40788;BME280;26497;52.494;7.546;2023-02-04T12:45:12;103058.13;;;17.41;37.69
40788;BME280;26497;52.494;7.546;2023-02-04T12:47:40;103070.59;;;17.42;37.58
40788;BME280;26497;52.494;7.546;2023-02-04T12:50:09;103056.69;;;17.80;37.45
40788;BME280;26497;52.494;7.546;2023-02-04T12:52:36;103057.53;;;17.75;36.84
40788;BME280;26497;52.494;7.546;2023-02-04T12:55:05;103062.69;;;17.54;36.78
40788;BME280;26497;52.494;7.546;2023-02-04T12:57:33;103060.84;;;17.43;37.03
40788;BME280;26497;52.494;7.546;2023-02-04T13:00:03;103065.03;;;17.19;37.75
40788;BME280;26497;52.494;7.546;2023-02-04T13:02:30;103065.63;;;16.93;37.92